createdAt,value
2023-03-29T00:00:23.431Z,25.15
2023-03-29T00:03:11.029Z,22.17
2023-03-29T00:05:39.468Z,23.25
2023-03-29T00:08:07.246Z,24.65
2023-03-29T00:10:35.348Z,25.38
2023-03-29T00:13:03.169Z,17.45
2023-03-29T00:15:30.842Z,26.92
2023-03-29T00:17:58.327Z,23.73
2023-03-29T00:20:26.097Z,21.67
2023-03-29T00:22:53.483Z,29.10
2023-03-29T00:25:21.156Z,29.75
2023-03-29T00:27:48.602Z,26.90
2023-03-29T00:30:16.479Z,21.48
2023-03-29T00:32:43.999Z,24.60
2023-03-29T00:35:30.141Z,28.55
2023-03-29T00:37:59.635Z,29.77
2023-03-29T00:40:27.449Z,22.55
2023-03-29T00:42:54.794Z,23.88
2023-03-29T00:45:23.733Z,25.67
2023-03-29T00:47:52.946Z,32.55
2023-03-29T00:50:38.384Z,24.27
2023-03-29T00:53:10.581Z,24.42
2023-03-29T00:55:48.804Z,25.65
2023-03-29T00:58:19.148Z,27.58
2023-03-29T01:00:50.225Z,25.55
2023-03-29T01:03:20.659Z,31.48
2023-03-29T01:05:49.684Z,27.48
2023-03-29T01:08:20.790Z,29.48
2023-03-29T01:10:51.417Z,35.45
2023-03-29T01:13:25.440Z,30.45
2023-03-29T01:15:53.927Z,36.05
2023-03-29T01:18:21.349Z,31.23
2023-03-29T01:21:07.219Z,29.55
2023-03-29T01:23:53.050Z,32.67
2023-03-29T01:26:33.185Z,29.85
2023-03-29T01:29:22.363Z,32.42
2023-03-29T01:31:59.955Z,28.15
2023-03-29T01:34:31.622Z,29.35
2023-03-29T01:37:11.492Z,31.52
2023-03-29T01:39:38.990Z,40.08
2023-03-29T01:42:25.295Z,34.70
2023-03-29T01:44:58.984Z,29.33
2023-03-29T01:47:38.640Z,31.67
2023-03-29T01:50:20.462Z,33.78
2023-03-29T01:52:57.796Z,37.45
2023-03-29T01:55:36.083Z,33.45
2023-03-29T01:58:05.448Z,38.35
2023-03-29T02:00:33.362Z,36.65
2023-03-29T02:03:02.700Z,45.38
2023-03-29T02:05:30.854Z,45.50
2023-03-29T02:08:00.307Z,39.50
2023-03-29T02:10:28.023Z,32.33
2023-03-29T02:12:55.765Z,37.22
2023-03-29T02:15:23.345Z,34.65
2023-03-29T02:17:51.540Z,36.78
2023-03-29T02:20:24.739Z,38.28
2023-03-29T02:22:58.511Z,33.83
2023-03-29T02:25:26.267Z,44.42
2023-03-29T02:27:54.182Z,37.13
2023-03-29T02:30:22.435Z,27.70
2023-03-29T02:33:02.250Z,24.85
2023-03-29T02:35:32.760Z,34.88
2023-03-29T02:38:04.573Z,28.20
2023-03-29T02:40:32.686Z,32.37
2023-03-29T02:43:01.395Z,31.27
2023-03-29T02:45:29.590Z,25.60
2023-03-29T02:48:00.151Z,34.25
2023-03-29T02:50:29.375Z,27.88
2023-03-29T02:52:59.742Z,29.55
2023-03-29T02:55:29.000Z,29.60
2023-03-29T02:57:56.884Z,38.97
2023-03-29T03:00:24.267Z,30.33
2023-03-29T03:02:52.227Z,32.22
2023-03-29T03:05:19.853Z,27.95
2023-03-29T03:07:47.680Z,29.00
2023-03-29T03:10:15.140Z,29.17
2023-03-29T03:12:42.876Z,28.55
2023-03-29T03:15:10.505Z,22.08
2023-03-29T03:17:38.401Z,20.30
2023-03-29T03:20:09.477Z,20.65
2023-03-29T03:22:37.207Z,17.17
2023-03-29T03:25:04.846Z,18.63
2023-03-29T03:27:32.590Z,18.42
2023-03-29T03:29:59.946Z,20.98
2023-03-29T03:32:27.606Z,20.90
2023-03-29T03:34:55.142Z,27.15
2023-03-29T03:37:22.971Z,15.15
2023-03-29T03:39:50.308Z,23.27
2023-03-29T03:42:18.023Z,19.48
2023-03-29T03:44:47.484Z,24.85
2023-03-29T03:47:15.427Z,21.25
2023-03-29T03:49:42.834Z,21.60
2023-03-29T03:52:10.673Z,25.33
2023-03-29T03:54:38.047Z,27.33
2023-03-29T03:57:05.725Z,24.45
2023-03-29T03:59:33.054Z,20.83
2023-03-29T04:02:00.752Z,26.25
2023-03-29T04:04:28.246Z,24.60
2023-03-29T04:06:56.057Z,26.63
2023-03-29T04:09:23.434Z,22.17
2023-03-29T04:11:51.125Z,22.73
2023-03-29T04:14:18.477Z,14.93
2023-03-29T04:16:46.172Z,19.88
2023-03-29T04:19:13.620Z,15.98
2023-03-29T04:21:41.334Z,31.77
2023-03-29T04:24:08.734Z,19.40
2023-03-29T04:26:36.453Z,25.92
2023-03-29T04:29:03.880Z,19.10
2023-03-29T04:31:31.685Z,22.95
2023-03-29T04:34:00.417Z,26.13
2023-03-29T04:36:28.392Z,20.92
2023-03-29T04:38:55.826Z,18.40
2023-03-29T04:41:23.490Z,17.38
2023-03-29T04:43:50.830Z,18.38
2023-03-29T04:46:18.614Z,25.77
2023-03-29T04:48:46.078Z,36.28
2023-03-29T04:51:13.719Z,33.60
2023-03-29T04:53:41.113Z,28.45
2023-03-29T04:56:08.898Z,27.75
2023-03-29T04:58:36.249Z,27.77
2023-03-29T05:01:04.064Z,22.98
2023-03-29T05:03:31.559Z,20.02
2023-03-29T05:06:03.267Z,20.40
2023-03-29T05:08:30.634Z,24.17
2023-03-29T05:10:58.294Z,18.90
2023-03-29T05:13:25.771Z,18.65
2023-03-29T05:15:53.534Z,21.73
2023-03-29T05:18:20.990Z,22.80
2023-03-29T05:20:54.455Z,29.00
2023-03-29T05:23:21.826Z,25.35
2023-03-29T05:25:50.191Z,23.67
2023-03-29T05:28:17.675Z,21.92
2023-03-29T05:30:45.837Z,27.33
2023-03-29T05:33:13.285Z,22.33
2023-03-29T05:35:40.961Z,18.13
2023-03-29T05:38:08.310Z,23.23
2023-03-29T05:40:36.029Z,24.50
2023-03-29T05:43:03.433Z,19.02
2023-03-29T05:45:31.286Z,19.27
2023-03-29T05:47:58.714Z,23.80
2023-03-29T05:50:26.381Z,18.83
2023-03-29T05:52:53.706Z,14.13
2023-03-29T05:55:21.433Z,17.02
2023-03-29T05:57:48.781Z,19.13
2023-03-29T06:00:16.835Z,13.48
2023-03-29T06:02:44.292Z,14.00
2023-03-29T06:05:12.296Z,20.27
2023-03-29T06:07:46.062Z,13.80
2023-03-29T06:10:13.825Z,12.80
2023-03-29T06:12:41.683Z,15.40
2023-03-29T06:15:09.654Z,13.35
2023-03-29T06:17:37.117Z,13.25
2023-03-29T06:20:05.409Z,15.90
2023-03-29T06:22:32.915Z,16.73
2023-03-29T06:25:00.568Z,14.52
2023-03-29T06:27:27.973Z,14.32
2023-03-29T06:29:55.620Z,12.95
2023-03-29T06:32:22.971Z,11.27
2023-03-29T06:34:50.632Z,14.35
2023-03-29T06:37:18.365Z,19.65
2023-03-29T06:39:46.102Z,18.55
2023-03-29T06:42:21.320Z,14.65
2023-03-29T06:44:57.420Z,11.25
2023-03-29T06:47:24.817Z,17.58
2023-03-29T06:49:52.574Z,13.73
2023-03-29T06:52:19.930Z,10.63
2023-03-29T06:54:47.573Z,15.40
2023-03-29T06:57:15.231Z,15.23
2023-03-29T06:59:42.930Z,13.18
2023-03-29T07:02:10.393Z,11.38
2023-03-29T07:04:38.504Z,10.18
2023-03-29T07:07:05.899Z,9.90
2023-03-29T07:09:33.532Z,13.63
2023-03-29T07:12:00.856Z,10.38
2023-03-29T07:14:28.707Z,10.48
2023-03-29T07:16:56.430Z,12.13
2023-03-29T07:19:24.462Z,8.98
2023-03-29T07:21:51.888Z,7.28
2023-03-29T07:24:19.721Z,7.95
2023-03-29T07:27:00.261Z,15.55
2023-03-29T07:29:31.557Z,10.65
2023-03-29T07:31:58.956Z,6.95
2023-03-29T07:34:26.647Z,11.45
2023-03-29T07:36:53.981Z,9.73
2023-03-29T07:39:21.616Z,9.55
2023-03-29T07:41:48.941Z,7.25
2023-03-29T07:44:16.641Z,6.72
2023-03-29T07:46:43.955Z,8.60
2023-03-29T07:49:11.670Z,8.38
2023-03-29T07:51:38.964Z,9.70
2023-03-29T07:54:06.697Z,8.07
2023-03-29T07:56:34.104Z,13.85
2023-03-29T07:59:01.748Z,11.90
2023-03-29T08:01:29.153Z,7.00
2023-03-29T08:03:57.102Z,8.85
2023-03-29T08:06:24.637Z,11.48
2023-03-29T08:08:52.291Z,5.90
2023-03-29T08:11:19.656Z,8.52
2023-03-29T08:13:47.274Z,5.32
2023-03-29T08:16:14.815Z,7.32
2023-03-29T08:18:42.540Z,6.28
2023-03-29T08:21:10.028Z,4.53
2023-03-29T08:23:37.672Z,5.60
2023-03-29T08:26:05.114Z,5.40
2023-03-29T08:28:32.802Z,4.07
2023-03-29T08:31:00.736Z,6.13
2023-03-29T08:33:28.812Z,5.10
2023-03-29T08:35:56.290Z,6.20
2023-03-29T08:38:24.018Z,11.43
2023-03-29T08:40:51.369Z,5.95
2023-03-29T08:43:31.108Z,3.90
2023-03-29T08:46:16.524Z,8.25
2023-03-29T08:48:46.663Z,5.65
2023-03-29T08:51:29.359Z,8.27
2023-03-29T08:54:04.139Z,5.25
2023-03-29T08:56:34.310Z,8.68
2023-03-29T08:59:02.179Z,3.75
2023-03-29T09:01:32.396Z,5.55
2023-03-29T09:04:07.906Z,3.55
2023-03-29T09:06:35.346Z,5.10
2023-03-29T09:09:03.113Z,6.93
2023-03-29T09:11:48.974Z,4.40
2023-03-29T09:14:27.150Z,7.22
2023-03-29T09:17:13.414Z,4.40
2023-03-29T09:19:41.371Z,4.57
2023-03-29T09:22:14.594Z,4.03
2023-03-29T09:24:53.428Z,6.53
2023-03-29T09:27:24.374Z,6.43
2023-03-29T09:30:07.578Z,5.65
2023-03-29T09:32:50.650Z,4.45
2023-03-29T09:35:22.409Z,5.68
2023-03-29T09:37:51.048Z,7.22
2023-03-29T09:40:21.794Z,5.20
2023-03-29T09:42:51.005Z,3.65
2023-03-29T09:45:18.825Z,6.68
2023-03-29T09:47:46.220Z,5.97
2023-03-29T09:50:29.645Z,5.90
2023-03-29T09:52:58.740Z,7.68
2023-03-29T09:55:28.581Z,7.40
2023-03-29T09:57:58.571Z,5.20
2023-03-29T10:00:26.316Z,5.47
2023-03-29T10:02:54.595Z,4.32
2023-03-29T10:05:24.430Z,7.93
2023-03-29T10:07:53.450Z,7.68
2023-03-29T10:10:28.394Z,4.55
2023-03-29T10:13:06.050Z,7.75
2023-03-29T10:15:33.709Z,5.32
2023-03-29T10:18:02.019Z,3.97
2023-03-29T10:20:29.804Z,4.40
2023-03-29T10:22:58.549Z,5.20
2023-03-29T10:25:30.132Z,6.35
2023-03-29T10:28:03.149Z,6.67
2023-03-29T10:30:33.882Z,5.25
2023-03-29T10:33:01.595Z,6.18
2023-03-29T10:35:31.556Z,4.68
2023-03-29T10:37:59.782Z,7.65
2023-03-29T10:40:34.226Z,7.40
2023-03-29T10:43:11.373Z,6.20
2023-03-29T10:45:39.863Z,5.70
2023-03-29T10:48:11.598Z,12.05
2023-03-29T10:53:11.884Z,4.85
2023-03-29T10:55:50.368Z,9.32
2023-03-29T10:58:24.799Z,4.75
2023-03-29T11:00:56.029Z,11.38
2023-03-29T11:03:29.562Z,5.57
2023-03-29T11:06:19.251Z,7.60
2023-03-29T11:09:06.917Z,6.10
2023-03-29T11:12:08.506Z,6.00
2023-03-29T11:14:43.590Z,9.10
2023-03-29T11:17:29.775Z,10.13
2023-03-29T11:20:16.105Z,8.32
2023-03-29T11:22:49.755Z,7.38
2023-03-29T11:25:17.178Z,9.07
2023-03-29T11:27:53.838Z,7.05
2023-03-29T11:30:35.155Z,8.13
2023-03-29T11:33:12.821Z,3.35
2023-03-29T11:35:55.306Z,3.67
2023-03-29T11:38:27.268Z,3.03
2023-03-29T11:41:23.991Z,6.50
2023-03-29T11:43:56.935Z,6.50
2023-03-29T11:46:38.366Z,5.00
2023-03-29T11:49:11.477Z,5.63
2023-03-29T11:51:48.684Z,4.45
2023-03-29T11:54:23.905Z,5.72
2023-03-29T11:57:12.654Z,5.88
2023-03-29T11:59:47.999Z,5.38
2023-03-29T12:02:22.642Z,5.45
2023-03-29T12:04:52.843Z,4.32
2023-03-29T12:07:26.365Z,6.95
2023-03-29T12:09:58.483Z,7.35
2023-03-29T12:12:33.086Z,3.78
2023-03-29T12:15:03.723Z,6.82
2023-03-29T12:17:34.146Z,4.05
2023-03-29T12:20:13.569Z,4.18
2023-03-29T12:22:41.036Z,4.20
2023-03-29T12:25:12.679Z,5.90
2023-03-29T12:27:58.897Z,4.03
2023-03-29T12:30:35.618Z,5.10
2023-03-29T12:33:02.958Z,6.90
2023-03-29T12:35:36.824Z,8.80
2023-03-29T12:38:04.157Z,4.38
2023-03-29T12:40:42.546Z,9.20
2023-03-29T12:43:19.900Z,5.28
2023-03-29T12:45:47.778Z,6.55
2023-03-29T12:48:16.787Z,4.93
2023-03-29T12:50:46.815Z,7.60
2023-03-29T12:53:14.204Z,5.45
2023-03-29T12:55:41.794Z,4.18
2023-03-29T12:58:24.800Z,6.50
2023-03-29T13:01:15.275Z,5.30
2023-03-29T13:03:45.768Z,4.18
2023-03-29T13:06:26.130Z,3.33
2023-03-29T13:09:04.421Z,3.83
2023-03-29T13:11:37.427Z,4.45
2023-03-29T13:14:12.418Z,6.45
2023-03-29T13:16:40.313Z,3.25
2023-03-29T13:19:34.078Z,5.63
2023-03-29T13:22:13.989Z,4.35
2023-03-29T13:25:01.445Z,7.30
2023-03-29T13:27:34.928Z,3.72
2023-03-29T13:30:19.300Z,4.85
2023-03-29T13:32:46.991Z,8.10
2023-03-29T13:35:34.769Z,11.02
2023-03-29T13:38:14.455Z,4.07
2023-03-29T13:40:43.470Z,6.03
2023-03-29T13:43:17.577Z,6.30
2023-03-29T13:45:45.593Z,4.25
2023-03-29T13:48:25.276Z,4.65
2023-03-29T13:50:56.819Z,4.95
2023-03-29T13:53:33.580Z,5.70
2023-03-29T13:56:01.127Z,8.63
2023-03-29T13:58:37.829Z,6.30
2023-03-29T14:01:23.452Z,4.82
2023-03-29T14:03:51.616Z,6.40
2023-03-29T14:06:25.237Z,4.55
2023-03-29T14:08:53.515Z,5.60
2023-03-29T14:11:25.620Z,6.53
2023-03-29T14:13:54.088Z,5.55
2023-03-29T14:16:21.682Z,6.22
2023-03-29T14:18:49.431Z,5.35
2023-03-29T14:21:17.207Z,6.75
2023-03-29T14:23:46.240Z,4.65
2023-03-29T14:26:18.090Z,6.38
2023-03-29T14:28:53.333Z,5.80
2023-03-29T14:31:24.699Z,3.60
2023-03-29T14:33:53.431Z,3.30
2023-03-29T14:36:21.693Z,4.97
2023-03-29T14:38:55.256Z,4.93
2023-03-29T14:41:24.278Z,4.13
2023-03-29T14:43:52.910Z,4.03
2023-03-29T14:46:20.965Z,2.70
2023-03-29T14:48:48.845Z,3.33
2023-03-29T14:51:16.336Z,5.85
2023-03-29T14:53:44.285Z,13.38
2023-03-29T14:56:13.789Z,4.50
2023-03-29T14:58:44.664Z,6.45
2023-03-29T15:01:21.781Z,2.97
2023-03-29T15:03:55.204Z,6.25
2023-03-29T15:06:24.004Z,4.28
2023-03-29T15:09:04.522Z,5.47
2023-03-29T15:11:34.409Z,4.57
2023-03-29T15:14:07.236Z,3.30
2023-03-29T15:16:37.565Z,4.72
2023-03-29T15:19:05.273Z,5.05
2023-03-29T15:21:35.423Z,3.35
2023-03-29T15:24:03.731Z,4.55
2023-03-29T15:26:32.536Z,4.30
2023-03-29T15:29:09.171Z,3.95
2023-03-29T15:31:38.112Z,3.47
2023-03-29T15:34:12.757Z,6.10
2023-03-29T15:36:44.012Z,9.90
2023-03-29T15:39:15.373Z,13.57
2023-03-29T15:41:43.586Z,6.63
2023-03-29T15:44:12.439Z,7.82
2023-03-29T15:46:39.818Z,10.20
2023-03-29T15:49:10.676Z,7.05
2023-03-29T15:51:38.093Z,9.20
2023-03-29T15:54:05.867Z,6.95
2023-03-29T15:56:43.538Z,10.95
2023-03-29T15:59:12.016Z,7.68
2023-03-29T16:01:39.503Z,7.90
2023-03-29T16:04:10.298Z,6.13
2023-03-29T16:06:37.954Z,7.38
2023-03-29T16:09:05.744Z,6.25
2023-03-29T16:11:33.279Z,6.60
2023-03-29T16:14:00.995Z,8.10
2023-03-29T16:16:28.452Z,7.32
2023-03-29T16:18:56.158Z,5.47
2023-03-29T16:21:23.736Z,8.63
2023-03-29T16:23:51.546Z,5.57
2023-03-29T16:26:18.877Z,7.82
2023-03-29T16:28:46.571Z,9.07
2023-03-29T16:31:14.002Z,6.43
2023-03-29T16:33:41.727Z,7.97
2023-03-29T16:36:10.578Z,7.95
2023-03-29T16:38:38.553Z,9.25
2023-03-29T16:41:06.196Z,9.45
2023-03-29T16:43:33.920Z,8.75
2023-03-29T16:46:01.814Z,5.53
2023-03-29T16:48:30.083Z,4.32
2023-03-29T16:50:57.484Z,3.30
2023-03-29T16:53:25.351Z,5.47
2023-03-29T16:55:52.799Z,5.47
2023-03-29T16:58:20.652Z,5.57
2023-03-29T17:00:48.620Z,4.40
2023-03-29T17:03:16.822Z,5.05
2023-03-29T17:05:48.134Z,6.13
2023-03-29T17:08:16.562Z,12.07
2023-03-29T17:10:44.282Z,5.13
2023-03-29T17:13:12.034Z,8.07
2023-03-29T17:15:39.810Z,6.15
2023-03-29T17:18:07.939Z,8.50
2023-03-29T17:20:38.090Z,7.05
2023-03-29T17:23:06.078Z,6.85
2023-03-29T17:25:33.561Z,4.13
2023-03-29T17:28:01.430Z,5.78
2023-03-29T17:30:28.938Z,4.97
2023-03-29T17:32:56.865Z,8.75
2023-03-29T17:35:24.310Z,8.05
2023-03-29T17:37:52.166Z,5.80
2023-03-29T17:40:19.492Z,5.47
2023-03-29T17:42:47.194Z,6.90
2023-03-29T17:45:15.250Z,4.13
2023-03-29T17:47:43.084Z,6.05
2023-03-29T17:50:11.260Z,9.30
2023-03-29T17:52:39.304Z,5.70
2023-03-29T17:55:10.068Z,9.10
2023-03-29T17:57:38.149Z,6.35
2023-03-29T18:00:06.761Z,7.43
2023-03-29T18:02:34.663Z,10.00
2023-03-29T18:05:02.453Z,6.88
2023-03-29T18:07:30.639Z,10.35
2023-03-29T18:09:58.403Z,13.50
2023-03-29T18:12:26.496Z,10.27
2023-03-29T18:14:54.403Z,13.00
2023-03-29T18:17:22.826Z,12.90
2023-03-29T18:19:50.340Z,8.52
2023-03-29T18:22:18.041Z,12.10
2023-03-29T18:24:45.525Z,10.75
2023-03-29T18:27:13.370Z,16.02
2023-03-29T18:29:40.776Z,10.48
2023-03-29T18:32:08.782Z,9.55
2023-03-29T18:34:36.412Z,10.35
2023-03-29T18:37:04.121Z,13.70
2023-03-29T18:39:31.618Z,12.38
2023-03-29T18:41:59.482Z,10.93
2023-03-29T18:44:27.030Z,10.65
2023-03-29T18:46:54.886Z,9.35
2023-03-29T18:49:24.091Z,8.63
2023-03-29T18:51:52.637Z,10.88
2023-03-29T18:54:19.992Z,9.38
2023-03-29T18:56:47.846Z,8.80
2023-03-29T18:59:15.868Z,8.35
2023-03-29T19:01:43.878Z,9.13
2023-03-29T19:04:12.412Z,6.55
2023-03-29T19:06:40.812Z,8.15
2023-03-29T19:09:08.179Z,8.95
2023-03-29T19:11:36.003Z,7.85
2023-03-29T19:14:04.087Z,6.55
2023-03-29T19:16:31.705Z,8.25
2023-03-29T19:18:59.066Z,7.35
2023-03-29T19:21:26.793Z,8.77
2023-03-29T19:23:54.191Z,7.97
2023-03-29T19:26:21.962Z,9.52
2023-03-29T19:28:49.374Z,8.27
2023-03-29T19:31:17.083Z,8.45
2023-03-29T19:33:44.515Z,8.05
2023-03-29T19:36:12.411Z,9.73
2023-03-29T19:38:39.905Z,10.82
2023-03-29T19:41:07.561Z,16.10
2023-03-29T19:43:35.114Z,15.02
2023-03-29T19:46:10.463Z,13.63
2023-03-29T19:48:38.575Z,21.83
2023-03-29T19:51:06.411Z,10.20
2023-03-29T19:53:33.843Z,15.68
2023-03-29T19:56:01.674Z,12.63
2023-03-29T19:58:29.484Z,15.82
2023-03-29T20:00:57.205Z,10.60
2023-03-29T20:03:27.782Z,12.00
2023-03-29T20:05:56.113Z,15.73
2023-03-29T20:08:23.887Z,15.50
2023-03-29T20:11:11.940Z,12.10
2023-03-29T20:13:41.455Z,13.27
2023-03-29T20:16:10.557Z,16.67
2023-03-29T20:18:38.253Z,17.90
2023-03-29T20:21:06.983Z,16.27
2023-03-29T20:23:34.932Z,14.93
2023-03-29T20:26:02.619Z,13.35
2023-03-29T20:28:30.031Z,14.82
2023-03-29T20:31:02.446Z,15.88
2023-03-29T20:35:57.913Z,14.23
2023-03-29T20:38:25.402Z,18.83
2023-03-29T20:40:54.502Z,19.20
2023-03-29T20:43:22.117Z,11.88
2023-03-29T20:45:53.423Z,11.20
2023-03-29T20:48:22.433Z,11.65
2023-03-29T20:50:50.462Z,11.77
2023-03-29T20:53:17.857Z,10.88
2023-03-29T20:55:46.014Z,13.43
2023-03-29T20:58:13.391Z,12.60
2023-03-29T21:00:41.079Z,10.25
2023-03-29T21:03:10.123Z,10.00
2023-03-29T21:05:44.056Z,11.65
2023-03-29T21:08:11.447Z,8.85
2023-03-29T21:10:39.747Z,13.75
2023-03-29T21:13:07.176Z,13.40
2023-03-29T21:15:34.898Z,14.27
2023-03-29T21:18:02.310Z,10.88
2023-03-29T21:20:30.153Z,15.15
2023-03-29T21:22:57.639Z,6.75
2023-03-29T21:25:25.287Z,10.85
2023-03-29T21:27:52.618Z,11.60
2023-03-29T21:30:20.578Z,10.02
2023-03-29T21:32:47.920Z,11.93
2023-03-29T21:35:15.774Z,9.20
2023-03-29T21:37:43.119Z,12.57
2023-03-29T21:40:11.214Z,9.25
2023-03-29T21:42:38.554Z,10.20
2023-03-29T21:45:06.488Z,11.10
2023-03-29T21:47:33.879Z,14.55
2023-03-29T21:50:01.709Z,9.05
2023-03-29T21:52:29.174Z,9.52
2023-03-29T21:54:57.045Z,15.60
2023-03-29T21:57:24.490Z,12.38
2023-03-29T21:59:52.466Z,17.08
2023-03-29T22:02:19.927Z,10.45
2023-03-29T22:04:47.752Z,11.40
2023-03-29T22:07:15.349Z,17.52
2023-03-29T22:09:43.057Z,15.18
2023-03-29T22:12:10.379Z,11.73
2023-03-29T22:14:38.183Z,12.52
2023-03-29T22:17:05.836Z,22.48
2023-03-29T22:19:36.690Z,11.55
2023-03-29T22:22:04.512Z,10.95
2023-03-29T22:24:32.180Z,12.18
2023-03-29T22:26:59.620Z,10.18
2023-03-29T22:29:27.287Z,9.70
2023-03-29T22:31:54.773Z,10.25
2023-03-29T22:34:22.395Z,13.52
2023-03-29T22:36:49.791Z,14.23
2023-03-29T22:39:17.499Z,11.13
2023-03-29T22:41:44.915Z,12.57
2023-03-29T22:44:12.718Z,15.88
2023-03-29T22:46:40.212Z,11.45
2023-03-29T22:49:07.914Z,14.05
2023-03-29T22:51:35.280Z,14.20
2023-03-29T22:54:03.190Z,13.55
2023-03-29T22:56:30.750Z,14.18
2023-03-29T22:58:58.456Z,13.15
2023-03-29T23:01:25.924Z,12.23
2023-03-29T23:03:53.743Z,17.58
2023-03-29T23:06:21.108Z,13.93
2023-03-29T23:08:48.770Z,12.88
2023-03-29T23:11:16.135Z,11.52
2023-03-29T23:13:43.954Z,15.45
2023-03-29T23:16:11.405Z,14.13
2023-03-29T23:18:39.157Z,13.88
2023-03-29T23:21:06.863Z,10.77
2023-03-29T23:23:34.892Z,12.82
2023-03-29T23:26:02.528Z,8.65
2023-03-29T23:28:30.342Z,10.52
2023-03-29T23:30:59.271Z,13.57
2023-03-29T23:33:27.599Z,14.65
2023-03-29T23:35:57.279Z,12.65
2023-03-29T23:38:25.068Z,10.38
2023-03-29T23:40:56.024Z,13.27
2023-03-29T23:43:23.700Z,12.20
2023-03-29T23:45:55.410Z,8.68
2023-03-29T23:48:23.478Z,7.97
2023-03-29T23:50:50.862Z,10.63
2023-03-29T23:53:18.793Z,14.95
2023-03-29T23:55:46.840Z,14.93
2023-03-29T23:58:14.959Z,9.40
